Terminal Aerodrome Forecast
Issued by NWS Knoxville/Tri Cities, TN

Home | Current Version | Previous Version | Text Only | Print | Product List | Glossary On
Versions: 1 2 3 4 5 6 7 8 9 10 11 12 13 14 15 16 17 18 19 20 21 22 23 24 25 26 27 28
000
FTUS44 KMRX 270119 AAA
TAFCHA
TAF AMD
KCHA 270119Z 2701/2724 33007KT P6SM BKN035
      TEMPO 2701/2703 2SM -SN BR OVC050
     FM270600 32004KT P6SM SCT009 OVC020
     FM271000 34003KT P6SM OVC009
     FM271500 35010KT P6SM BKN015=

USA.gov is the U.S. government's official web portal to all federal, state and local government web resources and services.